Time;durP1;ratioP1;P1;durP2;ratioP2;P2;SDS_P1;SDS_P2;PMS_P1;PMS_P2;Temp;Humidity;BMP_temperature;BMP_pressure;BME280_temperature;BME280_humidity;BME280_pressure;Samples;Min_cycle;Max_cycle;Signal;HPM_P1;HPM_P2
2022/11/26 00:01:48;;;;;;;40.95;14.25;;;;;;;;;;6191795;28;20401;-83
2022/11/26 00:04:52;;;;;;;59.38;14.57;;;;;;;;;;6196828;28;20112;-81
2022/11/26 00:07:56;;;;;;;60.08;14.75;;;;;;;;;;6195182;28;20524;-81
2022/11/26 00:10:59;;;;;;;49.97;13.55;;;;;;;;;;6200939;28;20160;-80
2022/11/26 00:14:01;;;;;;;29.02;11.48;;;;;;;;;;6194121;28;20042;-83
2022/11/26 00:17:03;;;;;;;39.55;10.93;;;;;;;;;;6195707;28;20050;-82
2022/11/26 00:20:06;;;;;;;23.17;9.23;;;;;;;;;;6193471;28;20136;-81
2022/11/26 00:23:27;;;;;;;25.33;8.47;;;;;;;;;;6188160;28;20475;-83
2022/11/26 00:26:29;;;;;;;17.13;8.07;;;;;;;;;;6201565;28;20864;-82
2022/11/26 00:29:31;;;;;;;16.50;7.45;;;;;;;;;;6190171;28;22131;-82
2022/11/26 00:32:32;;;;;;;30.23;11.93;;;;;;;;;;6189484;28;20034;-80
2022/11/26 00:35:37;;;;;;;23.88;10.95;;;;;;;;;;6189700;28;20442;-80
2022/11/26 00:38:39;;;;;;;28.05;12.18;;;;;;;;;;6196026;28;20129;-82
2022/11/26 00:41:43;;;;;;;47.20;19.15;;;;;;;;;;6198370;28;20089;-81
2022/11/26 00:44:45;;;;;;;28.48;13.20;;;;;;;;;;6185520;28;20056;-81
2022/11/26 00:47:47;;;;;;;36.65;12.95;;;;;;;;;;6160778;28;20541;-80
2022/11/26 00:50:50;;;;;;;27.45;11.23;;;;;;;;;;6172043;28;20202;-81
2022/11/26 00:53:55;;;;;;;27.05;11.50;;;;;;;;;;6172073;28;20054;-81
2022/11/26 00:56:57;;;;;;;27.13;11.63;;;;;;;;;;6174451;28;20054;-81
2022/11/26 00:59:58;;;;;;;44.13;16.05;;;;;;;;;;6180034;28;20110;-81
2022/11/26 01:03:00;;;;;;;50.65;12.93;;;;;;;;;;6171864;28;20161;-81
2022/11/26 01:06:02;;;;;;;57.30;12.55;;;;;;;;;;6191067;28;20045;-79
2022/11/26 01:09:05;;;;;;;58.53;10.95;;;;;;;;;;6197586;28;20056;-81
2022/11/26 01:12:13;;;;;;;28.60;9.10;;;;;;;;;;6197227;28;20533;-82
2022/11/26 01:15:17;;;;;;;19.42;9.63;;;;;;;;;;6192860;28;20121;-82
2022/11/26 01:18:20;;;;;;;33.75;12.02;;;;;;;;;;6189189;28;20046;-81
2022/11/26 01:21:22;;;;;;;;;;;;;;;;;;6194878;28;20045;-82
2022/11/26 01:24:24;;;;;;;31.70;10.20;;;;;;;;;;6198044;28;19983;-82
2022/11/26 01:27:26;;;;;;;23.88;9.65;;;;;;;;;;6194388;28;20069;-82
2022/11/26 01:30:32;;;;;;;61.85;14.70;;;;;;;;;;6210280;28;20121;-81
2022/11/26 01:33:34;;;;;;;26.05;10.07;;;;;;;;;;6195827;28;20045;-82
2022/11/26 01:36:38;;;;;;;56.17;19.90;;;;;;;;;;6194264;28;20401;-80
2022/11/26 01:39:40;;;;;;;32.03;8.05;;;;;;;;;;6195070;28;20073;-82
2022/11/26 01:42:48;;;;;;;34.60;7.75;;;;;;;;;;6197669;28;20133;-82
2022/11/26 01:45:50;;;;;;;26.75;7.57;;;;;;;;;;6192978;28;20129;-82
2022/11/26 01:48:52;;;;;;;35.67;7.28;;;;;;;;;;6196462;28;20042;-82
2022/11/26 01:52:06;;;;;;;17.85;5.57;;;;;;;;;;6197067;28;20236;-82
2022/11/26 01:55:13;;;;;;;;;;;;;;;;;;6208155;28;20101;-80
2022/11/26 01:58:21;;;;;;;29.77;6.95;;;;;;;;;;6212307;28;19930;-80
2022/11/26 02:01:23;;;;;;;19.15;6.15;;;;;;;;;;6210180;28;20041;-81
2022/11/26 02:04:30;;;;;;;26.13;6.03;;;;;;;;;;6196630;28;22562;-80
2022/11/26 02:07:33;;;;;;;18.50;5.05;;;;;;;;;;6190019;28;20045;-81
2022/11/26 02:10:35;;;;;;;15.07;7.18;;;;;;;;;;6192781;28;20065;-82
2022/11/26 02:13:36;;;;;;;43.33;13.45;;;;;;;;;;6192764;28;20173;-82
2022/11/26 02:16:50;;;;;;;23.75;7.93;;;;;;;;;;6193182;28;20525;-81
2022/11/26 02:20:16;;;;;;;51.00;10.88;;;;;;;;;;6195007;28;20118;-82
2022/11/26 02:23:52;;;;;;;42.63;8.88;;;;;;;;;;6193493;28;20048;-80
2022/11/26 02:27:22;;;;;;;31.45;6.68;;;;;;;;;;6210590;28;20506;-83
2022/11/26 02:30:27;;;;;;;20.40;6.60;;;;;;;;;;6207367;28;20050;-83
2022/11/26 02:33:37;;;;;;;12.63;5.72;;;;;;;;;;6191491;28;20045;-81
2022/11/26 02:36:52;;;;;;;11.57;5.95;;;;;;;;;;6190924;28;20498;-82
2022/11/26 02:39:56;;;;;;;51.30;17.73;;;;;;;;;;6192388;28;20057;-82
2022/11/26 02:42:57;;;;;;;27.98;8.77;;;;;;;;;;6195862;28;20132;-80
2022/11/26 02:46:04;;;;;;;22.00;6.35;;;;;;;;;;6183171;28;20501;-81
2022/11/26 02:49:10;;;;;;;38.30;8.65;;;;;;;;;;6197911;28;20413;-81
2022/11/26 02:52:15;;;;;;;37.13;11.30;;;;;;;;;;6208765;28;20981;-81
2022/11/26 02:55:20;;;;;;;25.13;6.93;;;;;;;;;;6198243;28;20042;-82
2022/11/26 02:58:21;;;;;;;23.10;6.60;;;;;;;;;;6199829;28;20042;-80
2022/11/26 03:01:36;;;;;;;23.08;7.47;;;;;;;;;;6198639;28;20050;-81
2022/11/26 03:04:41;;;;;;;22.67;7.13;;;;;;;;;;6214091;28;20045;-81
2022/11/26 03:07:52;;;;;;;33.17;9.77;;;;;;;;;;6197362;28;20038;-81
2022/11/26 03:10:54;;;;;;;26.02;8.88;;;;;;;;;;6202037;28;20041;-82
2022/11/26 03:13:55;;;;;;;15.43;7.15;;;;;;;;;;6200165;28;21610;-80
2022/11/26 03:16:57;;;;;;;21.35;7.78;;;;;;;;;;6214647;28;20128;-81
2022/11/26 03:19:59;;;;;;;21.65;9.02;;;;;;;;;;6198122;28;20079;-81
2022/11/26 03:23:01;;;;;;;14.23;7.50;;;;;;;;;;6199775;28;20131;-83
2022/11/26 03:26:02;;;;;;;19.27;9.70;;;;;;;;;;6195710;28;20430;-82
2022/11/26 03:29:04;;;;;;;16.33;7.85;;;;;;;;;;6198471;28;20109;-81
2022/11/26 03:32:06;;;;;;;12.13;6.18;;;;;;;;;;6195098;28;20180;-81
2022/11/26 03:35:08;;;;;;;21.17;8.07;;;;;;;;;;6197997;28;20391;-81
2022/11/26 03:38:10;;;;;;;14.88;6.03;;;;;;;;;;6198963;28;20115;-82
2022/11/26 03:41:12;;;;;;;16.65;5.28;;;;;;;;;;6198555;28;20127;-82
2022/11/26 03:44:13;;;;;;;14.18;5.25;;;;;;;;;;6195229;28;20046;-82
2022/11/26 03:47:15;;;;;;;15.15;5.10;;;;;;;;;;6195297;28;20205;-81
2022/11/26 03:50:17;;;;;;;18.67;5.90;;;;;;;;;;6195760;28;20117;-79
2022/11/26 03:53:20;;;;;;;12.65;4.60;;;;;;;;;;6197599;28;20502;-80
2022/11/26 03:56:22;;;;;;;15.20;5.40;;;;;;;;;;6197132;28;20045;-82
2022/11/26 03:59:24;;;;;;;9.15;4.38;;;;;;;;;;6211774;28;20106;-80
2022/11/26 04:02:26;;;;;;;11.82;4.65;;;;;;;;;;6213569;28;20141;-82
2022/11/26 04:05:28;;;;;;;9.63;4.38;;;;;;;;;;6194313;28;22536;-82
2022/11/26 04:08:30;;;;;;;13.15;4.75;;;;;;;;;;6199402;28;20502;-82
2022/11/26 04:11:31;;;;;;;14.32;4.60;;;;;;;;;;6217189;28;20114;-82
2022/11/26 04:14:33;;;;;;;9.93;4.72;;;;;;;;;;6193446;28;20045;-81
2022/11/26 04:17:35;;;;;;;7.53;4.13;;;;;;;;;;6199451;28;20049;-82
2022/11/26 04:20:36;;;;;;;7.18;4.40;;;;;;;;;;6195889;28;20052;-82
2022/11/26 04:23:38;;;;;;;12.90;5.20;;;;;;;;;;6199787;28;20069;-83
2022/11/26 04:26:40;;;;;;;8.93;4.40;;;;;;;;;;6211615;28;20072;-81
2022/11/26 04:29:41;;;;;;;8.85;4.35;;;;;;;;;;6194544;28;20138;-81
2022/11/26 04:32:43;;;;;;;9.32;3.95;;;;;;;;;;6180443;28;20045;-81
2022/11/26 04:35:45;;;;;;;7.18;4.22;;;;;;;;;;6197344;28;20061;-81
2022/11/26 04:38:47;;;;;;;8.82;4.53;;;;;;;;;;6190652;28;20058;-82
2022/11/26 04:41:49;;;;;;;13.73;4.47;;;;;;;;;;6198904;28;22213;-81
2022/11/26 04:44:50;;;;;;;13.32;5.25;;;;;;;;;;6209962;28;20057;-82
2022/11/26 04:47:52;;;;;;;14.80;5.72;;;;;;;;;;6203188;28;20092;-80
2022/11/26 04:50:54;;;;;;;13.82;4.70;;;;;;;;;;6191180;28;20046;-80
2022/11/26 04:53:56;;;;;;;19.05;5.45;;;;;;;;;;6190030;28;20053;-81
2022/11/26 04:57:03;;;;;;;20.42;5.00;;;;;;;;;;6210714;28;20050;-81
2022/11/26 05:00:08;;;;;;;18.20;7.30;;;;;;;;;;6192470;28;20454;-81
2022/11/26 05:03:09;;;;;;;28.90;6.82;;;;;;;;;;6194526;28;20045;-82
2022/11/26 05:06:11;;;;;;;15.73;5.93;;;;;;;;;;6192553;28;20131;-80
2022/11/26 05:09:13;;;;;;;31.05;9.35;;;;;;;;;;6212452;28;20052;-82
2022/11/26 05:12:15;;;;;;;21.45;8.88;;;;;;;;;;6194321;28;20123;-81
2022/11/26 05:15:16;;;;;;;21.55;6.60;;;;;;;;;;6194684;28;20128;-81
2022/11/26 05:18:18;;;;;;;23.55;8.18;;;;;;;;;;6195448;28;20113;-82
2022/11/26 05:21:20;;;;;;;23.23;10.90;;;;;;;;;;6190849;28;20171;-82
2022/11/26 05:24:21;;;;;;;15.15;6.53;;;;;;;;;;6196333;28;20203;-80
2022/11/26 05:27:23;;;;;;;16.45;6.35;;;;;;;;;;6197307;28;20125;-83
2022/11/26 05:30:25;;;;;;;20.48;6.78;;;;;;;;;;6205677;28;20046;-81
2022/11/26 05:33:27;;;;;;;22.00;8.45;;;;;;;;;;6191382;28;20551;-81
2022/11/26 05:36:28;;;;;;;28.35;9.57;;;;;;;;;;6189330;28;20111;-82
2022/11/26 05:39:30;;;;;;;17.70;7.50;;;;;;;;;;6192428;28;20061;-81
2022/11/26 05:42:32;;;;;;;14.70;7.72;;;;;;;;;;6191981;28;20071;-80
2022/11/26 05:45:34;;;;;;;16.52;6.85;;;;;;;;;;6189126;28;21448;-82
2022/11/26 05:48:36;;;;;;;25.35;9.23;;;;;;;;;;6192989;28;20069;-81
2022/11/26 05:51:38;;;;;;;15.43;6.68;;;;;;;;;;6190004;28;20092;-81
2022/11/26 05:54:40;;;;;;;19.20;7.97;;;;;;;;;;6190641;28;20046;-82
2022/11/26 05:57:41;;;;;;;22.17;7.68;;;;;;;;;;6193623;28;20054;-80
2022/11/26 06:00:43;;;;;;;29.98;8.90;;;;;;;;;;6198604;28;20077;-82
2022/11/26 06:03:45;;;;;;;22.10;6.78;;;;;;;;;;6195336;28;20060;-81
2022/11/26 06:06:47;;;;;;;25.30;9.13;;;;;;;;;;6192306;28;20045;-82
2022/11/26 06:09:48;;;;;;;16.20;7.57;;;;;;;;;;6192139;28;20042;-82
2022/11/26 06:12:50;;;;;;;13.93;7.10;;;;;;;;;;6192619;28;20506;-80
2022/11/26 06:15:52;;;;;;;11.88;5.15;;;;;;;;;;6186902;28;20065;-81
2022/11/26 06:18:54;;;;;;;12.23;4.20;;;;;;;;;;6180682;28;20051;-82
2022/11/26 06:21:56;;;;;;;12.50;5.27;;;;;;;;;;6169587;28;20125;-80
2022/11/26 06:24:58;;;;;;;10.55;4.35;;;;;;;;;;6187308;28;20060;-80
2022/11/26 06:28:00;;;;;;;9.68;3.95;;;;;;;;;;6190249;28;20256;-81
2022/11/26 06:31:02;;;;;;;13.07;4.43;;;;;;;;;;6184811;28;20053;-82
2022/11/26 06:34:04;;;;;;;17.33;5.55;;;;;;;;;;6196675;28;20478;-81
2022/11/26 06:37:05;;;;;;;13.07;5.22;;;;;;;;;;6205030;28;20061;-80
2022/11/26 06:40:14;;;;;;;14.88;5.15;;;;;;;;;;6193628;28;20063;-82
2022/11/26 06:43:15;;;;;;;13.32;6.57;;;;;;;;;;6193579;28;20588;-83
2022/11/26 06:46:17;;;;;;;13.27;6.05;;;;;;;;;;6190549;28;20519;-82
2022/11/26 06:49:19;;;;;;;10.85;4.63;;;;;;;;;;6177486;28;20049;-82
2022/11/26 06:52:21;;;;;;;9.98;4.88;;;;;;;;;;6193437;28;20123;-82
2022/11/26 06:55:23;;;;;;;15.02;6.82;;;;;;;;;;6184569;28;20054;-81
2022/11/26 06:58:24;;;;;;;16.80;6.22;;;;;;;;;;6187864;28;20121;-81
2022/11/26 07:01:26;;;;;;;14.05;4.72;;;;;;;;;;6194824;28;20057;-82
2022/11/26 07:04:28;;;;;;;13.85;5.78;;;;;;;;;;6193209;28;20069;-79
2022/11/26 07:07:30;;;;;;;19.70;6.93;;;;;;;;;;6207727;28;20050;-82
2022/11/26 07:10:32;;;;;;;15.13;5.70;;;;;;;;;;6192756;28;20168;-82
2022/11/26 07:13:35;;;;;;;24.63;7.47;;;;;;;;;;6193200;28;20117;-78
2022/11/26 07:16:39;;;;;;;9.18;4.60;;;;;;;;;;6210433;28;20356;-80
2022/11/26 07:19:42;;;;;;;20.08;5.38;;;;;;;;;;6198734;28;20398;-81
2022/11/26 07:22:45;;;;;;;22.02;7.13;;;;;;;;;;6193600;28;20096;-78
2022/11/26 07:25:48;;;;;;;19.33;6.50;;;;;;;;;;6198165;28;20049;-80
2022/11/26 07:28:50;;;;;;;23.55;9.40;;;;;;;;;;6183496;28;20498;-80
2022/11/26 07:31:52;;;;;;;21.80;8.18;;;;;;;;;;6195040;28;20070;-81
2022/11/26 07:34:54;;;;;;;19.10;8.20;;;;;;;;;;6193445;28;20060;-81
2022/11/26 07:37:55;;;;;;;18.33;6.88;;;;;;;;;;6201873;28;20101;-80
2022/11/26 07:41:09;;;;;;;22.90;10.50;;;;;;;;;;6202768;28;20060;-81
2022/11/26 07:44:13;;;;;;;21.30;9.07;;;;;;;;;;6198381;28;20057;-81
2022/11/26 07:47:14;;;;;;;30.15;12.18;;;;;;;;;;6200797;28;20053;-80
2022/11/26 07:50:17;;;;;;;21.65;8.70;;;;;;;;;;6192868;28;20054;-81
2022/11/26 07:53:18;;;;;;;21.35;8.50;;;;;;;;;;6181994;28;20038;-81
2022/11/26 07:56:20;;;;;;;25.15;9.18;;;;;;;;;;6177705;28;20183;-79
2022/11/26 07:59:22;;;;;;;22.65;9.88;;;;;;;;;;6198745;28;20141;-81
2022/11/26 08:02:24;;;;;;;42.17;16.45;;;;;;;;;;6197506;28;20141;-83
2022/11/26 08:05:25;;;;;;;26.17;11.30;;;;;;;;;;6167267;28;20430;-81
2022/11/26 08:08:27;;;;;;;23.70;9.48;;;;;;;;;;6197248;28;20050;-82
2022/11/26 08:11:31;;;;;;;20.65;9.18;;;;;;;;;;6189769;28;20057;-81
2022/11/26 08:14:33;;;;;;;24.67;10.52;;;;;;;;;;6180026;28;20045;-83
2022/11/26 08:17:35;;;;;;;24.88;10.88;;;;;;;;;;6194043;28;20053;-83
2022/11/26 08:20:37;;;;;;;50.00;24.42;;;;;;;;;;6196682;28;20077;-82
2022/11/26 08:23:38;;;;;;;25.88;12.32;;;;;;;;;;6197927;28;20069;-82
2022/11/26 08:26:42;;;;;;;24.58;10.90;;;;;;;;;;6195660;28;20176;-83
2022/11/26 08:29:45;;;;;;;20.15;9.18;;;;;;;;;;6193544;28;20092;-82
2022/11/26 08:32:46;;;;;;;20.70;9.18;;;;;;;;;;6195616;28;20107;-83
2022/11/26 08:35:53;;;;;;;21.98;10.27;;;;;;;;;;6188908;28;20422;-82
2022/11/26 08:39:11;;;;;;;16.42;9.00;;;;;;;;;;6192407;28;20085;-82
2022/11/26 08:42:12;;;;;;;18.90;8.32;;;;;;;;;;6191345;28;20046;-83
2022/11/26 08:45:14;;;;;;;16.45;8.00;;;;;;;;;;6188641;28;20057;-83
2022/11/26 08:48:16;;;;;;;18.80;8.88;;;;;;;;;;6179370;28;20049;-82
2022/11/26 08:51:18;;;;;;;14.13;6.70;;;;;;;;;;6190309;28;20048;-82
2022/11/26 08:54:20;;;;;;;13.93;7.13;;;;;;;;;;6188002;28;20498;-82
2022/11/26 08:57:22;;;;;;;23.17;9.98;;;;;;;;;;6194693;28;20059;-82
2022/11/26 09:00:23;;;;;;;16.42;7.97;;;;;;;;;;6188555;28;20045;-82
2022/11/26 09:03:25;;;;;;;16.73;6.63;;;;;;;;;;6206681;28;20057;-81
2022/11/26 09:06:29;;;;;;;11.88;6.18;;;;;;;;;;6189795;28;20168;-82
2022/11/26 09:09:31;;;;;;;14.55;6.63;;;;;;;;;;6208514;28;22018;-82
2022/11/26 09:12:32;;;;;;;11.95;6.43;;;;;;;;;;6205176;28;20046;-82
2022/11/26 09:15:36;;;;;;;15.30;7.03;;;;;;;;;;6188101;28;20125;-81
2022/11/26 09:18:38;;;;;;;14.55;7.63;;;;;;;;;;6191698;28;20406;-81
2022/11/26 09:21:40;;;;;;;14.80;7.90;;;;;;;;;;6192183;28;20049;-80
2022/11/26 09:24:42;;;;;;;17.88;8.80;;;;;;;;;;6183746;28;21503;-83
2022/11/26 09:27:43;;;;;;;40.33;17.95;;;;;;;;;;6194843;28;20037;-82
2022/11/26 09:30:45;;;;;;;16.38;8.02;;;;;;;;;;6195729;28;20100;-81
2022/11/26 09:33:47;;;;;;;21.67;10.35;;;;;;;;;;6194153;28;20122;-82
2022/11/26 09:36:49;;;;;;;22.55;11.13;;;;;;;;;;6194355;28;20062;-82
2022/11/26 09:39:52;;;;;;;23.75;10.85;;;;;;;;;;6197954;28;20090;-82
2022/11/26 09:43:01;;;;;;;28.42;12.55;;;;;;;;;;6209212;28;20169;-83
2022/11/26 09:46:03;;;;;;;31.92;12.68;;;;;;;;;;6193900;28;20098;-83
2022/11/26 09:49:05;;;;;;;21.70;9.95;;;;;;;;;;6193541;28;20502;-84
2022/11/26 09:52:09;;;;;;;19.58;8.07;;;;;;;;;;6192483;28;20065;-82
2022/11/26 09:55:27;;;;;;;16.85;6.65;;;;;;;;;;6188631;28;20657;-82
2022/11/26 09:58:40;;;;;;;9.48;4.50;;;;;;;;;;6193706;28;20046;-83
2022/11/26 10:01:42;;;;;;;9.02;4.38;;;;;;;;;;6190374;28;20219;-83
2022/11/26 10:04:45;;;;;;;12.90;5.50;;;;;;;;;;6182632;28;20044;-83
2022/11/26 10:08:14;;;;;;;14.70;5.00;;;;;;;;;;6191753;28;20045;-83
2022/11/26 10:11:39;;;;;;;7.75;4.00;;;;;;;;;;6195275;28;20060;-82
2022/11/26 10:14:50;;;;;;;9.40;4.13;;;;;;;;;;6202390;28;20977;-81
2022/11/26 10:18:04;;;;;;;16.48;4.75;;;;;;;;;;6176389;28;20427;-84
2022/11/26 10:21:26;;;;;;;8.88;4.72;;;;;;;;;;6178966;28;20184;-83
2022/11/26 10:24:49;;;;;;;9.80;5.00;;;;;;;;;;6163764;28;20053;-84
2022/11/26 10:27:54;;;;;;;15.60;4.72;;;;;;;;;;6166825;28;20046;-84
2022/11/26 10:30:59;;;;;;;11.00;5.13;;;;;;;;;;6162192;28;20043;-83
2022/11/26 10:34:07;;;;;;;13.40;5.68;;;;;;;;;;6164606;28;20085;-84
2022/11/26 10:37:09;;;;;;;11.45;4.57;;;;;;;;;;6164483;28;20042;-84
2022/11/26 10:40:26;;;;;;;13.52;5.40;;;;;;;;;;6171592;28;20089;-83
2022/11/26 10:43:29;;;;;;;10.27;4.75;;;;;;;;;;6166597;28;20049;-82
2022/11/26 10:46:33;;;;;;;9.48;5.00;;;;;;;;;;6167601;28;20084;-82
2022/11/26 10:49:35;;;;;;;10.65;5.40;;;;;;;;;;6177567;28;20049;-82
2022/11/26 10:52:38;;;;;;;14.18;5.38;;;;;;;;;;6167596;28;20054;-82
2022/11/26 10:55:42;;;;;;;12.10;4.95;;;;;;;;;;6163818;28;20046;-82
2022/11/26 10:58:46;;;;;;;12.65;5.72;;;;;;;;;;6167499;28;20053;-83
2022/11/26 11:01:48;;;;;;;11.70;4.85;;;;;;;;;;6167839;28;20822;-82
2022/11/26 11:04:59;;;;;;;12.73;4.07;;;;;;;;;;6185499;28;20103;-83
2022/11/26 11:08:01;;;;;;;13.45;4.90;;;;;;;;;;6205281;28;20365;-82
2022/11/26 11:11:04;;;;;;;11.38;4.60;;;;;;;;;;6198721;28;20081;-82
2022/11/26 11:14:26;;;;;;;9.15;4.93;;;;;;;;;;6213861;28;20143;-82
2022/11/26 11:17:30;;;;;;;11.10;4.70;;;;;;;;;;6191818;28;20046;-81
2022/11/26 11:20:36;;;;;;;14.80;4.38;;;;;;;;;;6200128;28;20056;-84
2022/11/26 11:23:38;;;;;;;8.45;4.53;;;;;;;;;;6213198;28;20092;-81
2022/11/26 11:27:00;;;;;;;11.23;4.57;;;;;;;;;;6191650;28;20131;-80
2022/11/26 11:30:05;;;;;;;9.75;4.60;;;;;;;;;;6199599;28;20502;-81
2022/11/26 11:33:19;;;;;;;12.10;4.90;;;;;;;;;;6188249;28;20054;-80
2022/11/26 11:36:25;;;;;;;;;;;;;;;;;;6209235;28;20390;-82
2022/11/26 11:39:29;;;;;;;10.40;4.25;;;;;;;;;;6191966;28;19962;-81
2022/11/26 11:42:32;;;;;;;13.00;4.60;;;;;;;;;;6155612;28;20402;-83
2022/11/26 11:45:41;;;;;;;8.93;4.30;;;;;;;;;;6185284;28;20675;-80
2022/11/26 11:48:46;;;;;;;11.05;5.03;;;;;;;;;;6187822;28;20096;-81
2022/11/26 11:52:21;;;;;;;11.23;4.63;;;;;;;;;;6183984;28;20351;-80
2022/11/26 11:56:01;;;;;;;9.90;5.10;;;;;;;;;;6189958;28;20846;-81
2022/11/26 11:59:21;;;;;;;8.55;4.22;;;;;;;;;;6149435;28;20069;-82
2022/11/26 12:02:51;;;;;;;8.95;4.93;;;;;;;;;;6188804;28;20053;-82
2022/11/26 12:06:11;;;;;;;13.80;5.57;;;;;;;;;;6183546;28;20050;-82
2022/11/26 12:09:41;;;;;;;13.90;5.00;;;;;;;;;;6185537;28;20046;-82
2022/11/26 12:12:52;;;;;;;11.05;5.38;;;;;;;;;;6186643;28;20054;-81
2022/11/26 12:16:00;;;;;;;8.18;4.50;;;;;;;;;;6205615;28;20156;-83
2022/11/26 12:19:24;;;;;;;10.25;5.57;;;;;;;;;;6185736;28;20128;-80
2022/11/26 12:22:40;;;;;;;8.82;5.65;;;;;;;;;;6186056;28;20058;-80
2022/11/26 12:25:45;;;;;;;7.45;3.97;;;;;;;;;;6184288;28;20136;-83
2022/11/26 12:29:16;;;;;;;14.23;5.00;;;;;;;;;;6188585;28;21331;-81
2022/11/26 12:32:30;;;;;;;12.13;4.50;;;;;;;;;;6184194;28;20056;-81
2022/11/26 12:35:37;;;;;;;10.15;3.80;;;;;;;;;;6185709;28;20157;-81
2022/11/26 12:38:45;;;;;;;9.27;4.32;;;;;;;;;;6184395;28;20197;-80
2022/11/26 12:42:14;;;;;;;12.55;5.82;;;;;;;;;;6199784;28;20402;-80
2022/11/26 12:45:41;;;;;;;8.15;3.88;;;;;;;;;;6183022;28;20128;-81
2022/11/26 12:48:55;;;;;;;6.57;3.58;;;;;;;;;;6186639;28;20124;-82
2022/11/26 12:52:18;;;;;;;13.50;5.57;;;;;;;;;;6185813;28;20113;-81
2022/11/26 12:55:41;;;;;;;8.82;4.35;;;;;;;;;;6190279;28;20049;-78
2022/11/26 12:59:00;;;;;;;12.03;4.37;;;;;;;;;;6191571;28;20046;-80
2022/11/26 13:02:31;;;;;;;7.85;4.38;;;;;;;;;;6193252;28;20134;-81
2022/11/26 13:05:57;;;;;;;9.68;3.95;;;;;;;;;;6199127;28;20053;-80
2022/11/26 13:09:27;;;;;;;7.43;3.50;;;;;;;;;;6196076;28;20048;-81
2022/11/26 13:12:32;;;;;;;11.80;3.35;;;;;;;;;;6195337;28;20057;-80
2022/11/26 13:15:43;;;;;;;9.48;3.95;;;;;;;;;;6189792;28;20045;-79
2022/11/26 13:18:58;;;;;;;10.85;4.50;;;;;;;;;;6194179;28;20045;-82
2022/11/26 13:22:15;;;;;;;16.08;5.28;;;;;;;;;;6205560;28;20046;-80
2022/11/26 13:25:32;;;;;;;7.88;4.22;;;;;;;;;;6194152;28;20045;-80
2022/11/26 13:28:45;;;;;;;9.38;3.55;;;;;;;;;;6156190;28;20176;-80
2022/11/26 13:32:08;;;;;;;11.57;5.35;;;;;;;;;;6178887;28;20049;-79
2022/11/26 13:35:52;;;;;;;7.35;3.28;;;;;;;;;;6191557;28;20358;-79
2022/11/26 13:39:03;;;;;;;10.13;4.22;;;;;;;;;;6193643;28;20130;-81
2022/11/26 13:42:26;;;;;;;6.65;3.30;;;;;;;;;;6174647;28;20047;-80
2022/11/26 13:45:53;;;;;;;12.38;5.20;;;;;;;;;;6157447;28;20137;-81
2022/11/26 13:49:13;;;;;;;11.00;3.85;;;;;;;;;;6160040;28;20050;-81
2022/11/26 13:52:46;;;;;;;8.77;4.50;;;;;;;;;;6159879;28;20050;-81
2022/11/26 13:55:55;;;;;;;10.52;4.63;;;;;;;;;;6158614;28;20066;-80
2022/11/26 13:59:19;;;;;;;12.77;4.78;;;;;;;;;;6180038;28;20156;-80
2022/11/26 14:02:31;;;;;;;10.07;5.43;;;;;;;;;;6144988;28;20054;-80
2022/11/26 14:05:48;;;;;;;13.82;4.47;;;;;;;;;;6156106;28;20050;-81
2022/11/26 14:08:52;;;;;;;11.60;4.90;;;;;;;;;;6180877;28;20049;-81
2022/11/26 14:11:55;;;;;;;8.50;4.63;;;;;;;;;;6199165;28;20054;-83
2022/11/26 14:14:57;;;;;;;8.77;4.28;;;;;;;;;;6182196;28;20057;-80
2022/11/26 14:17:59;;;;;;;10.20;4.35;;;;;;;;;;6179219;28;20101;-80
2022/11/26 14:21:02;;;;;;;13.73;5.28;;;;;;;;;;6181133;28;20220;-80
2022/11/26 14:24:04;;;;;;;11.68;4.90;;;;;;;;;;6183766;28;20046;-81
2022/11/26 14:27:06;;;;;;;7.93;4.15;;;;;;;;;;6183775;28;20188;-82
2022/11/26 14:30:07;;;;;;;14.55;6.10;;;;;;;;;;6182123;28;20385;-81
2022/11/26 14:33:15;;;;;;;27.67;10.65;;;;;;;;;;6184618;28;20108;-80
2022/11/26 14:36:27;;;;;;;19.98;7.47;;;;;;;;;;6179072;28;20859;-82
2022/11/26 14:39:30;;;;;;;21.27;8.50;;;;;;;;;;6197439;28;20046;-80
2022/11/26 14:42:32;;;;;;;10.48;5.70;;;;;;;;;;6183817;28;20104;-80
2022/11/26 14:45:34;;;;;;;14.57;5.03;;;;;;;;;;6177466;28;20285;-81
2022/11/26 14:48:41;;;;;;;16.65;7.15;;;;;;;;;;6183796;28;20077;-80
2022/11/26 14:51:46;;;;;;;11.18;5.05;;;;;;;;;;6198170;28;20061;-79
2022/11/26 14:54:52;;;;;;;12.05;5.18;;;;;;;;;;6199211;28;20235;-80
2022/11/26 14:57:58;;;;;;;14.18;4.60;;;;;;;;;;6182158;28;20049;-82
2022/11/26 15:01:03;;;;;;;13.82;4.90;;;;;;;;;;6178627;28;20057;-79
2022/11/26 15:04:05;;;;;;;10.20;4.10;;;;;;;;;;6186010;28;20372;-81
2022/11/26 15:07:22;;;;;;;10.82;5.68;;;;;;;;;;6182000;28;20929;-81
2022/11/26 15:10:25;;;;;;;11.27;5.20;;;;;;;;;;6199374;28;20046;-78
2022/11/26 15:13:47;;;;;;;11.80;5.78;;;;;;;;;;6186580;28;21855;-79
2022/11/26 15:17:17;;;;;;;10.18;4.35;;;;;;;;;;6184058;28;20180;-81
2022/11/26 15:20:19;;;;;;;13.13;4.40;;;;;;;;;;6185185;28;20303;-78
2022/11/26 15:23:35;;;;;;;18.95;12.15;;;;;;;;;;6186563;28;20100;-80
2022/11/26 15:26:37;;;;;;;27.58;14.02;;;;;;;;;;6199069;28;20585;-79
2022/11/26 15:29:41;;;;;;;17.33;7.78;;;;;;;;;;6181614;28;20065;-77
2022/11/26 15:32:43;;;;;;;18.77;6.72;;;;;;;;;;6183104;28;20948;-80
2022/11/26 15:35:49;;;;;;;15.68;7.60;;;;;;;;;;6177134;28;20085;-79
2022/11/26 15:39:05;;;;;;;20.52;8.23;;;;;;;;;;6184312;28;20172;-80
2022/11/26 15:42:28;;;;;;;13.68;5.65;;;;;;;;;;6198438;28;20049;-82
2022/11/26 15:45:36;;;;;;;11.18;5.85;;;;;;;;;;6184689;28;20045;-81
2022/11/26 15:48:47;;;;;;;13.95;7.63;;;;;;;;;;6184966;28;20062;-80
2022/11/26 15:52:05;;;;;;;11.68;6.25;;;;;;;;;;6186346;28;20054;-76
2022/11/26 15:55:22;;;;;;;14.00;5.10;;;;;;;;;;6192770;28;20054;-80
2022/11/26 15:58:47;;;;;;;11.73;5.32;;;;;;;;;;6196970;28;20137;-81
2022/11/26 16:01:52;;;;;;;10.85;5.55;;;;;;;;;;6193498;28;20045;-80
2022/11/26 16:05:02;;;;;;;11.00;5.20;;;;;;;;;;6191377;28;20050;-84
2022/11/26 16:08:22;;;;;;;11.88;5.35;;;;;;;;;;6210180;28;20780;-78
2022/11/26 16:11:25;;;;;;;15.23;6.70;;;;;;;;;;6213231;28;20466;-81
2022/11/26 16:14:34;;;;;;;20.05;7.85;;;;;;;;;;6185870;28;20212;-79
2022/11/26 16:17:36;;;;;;;15.27;7.65;;;;;;;;;;6169422;28;20050;-80
2022/11/26 16:20:38;;;;;;;20.27;7.95;;;;;;;;;;6164105;28;20049;-80
2022/11/26 16:23:40;;;;;;;21.70;7.97;;;;;;;;;;6168153;28;20153;-79
2022/11/26 16:26:56;;;;;;;15.23;6.90;;;;;;;;;;6176180;28;20132;-82
2022/11/26 16:30:01;;;;;;;21.15;7.65;;;;;;;;;;6166915;28;20121;-80
2022/11/26 16:33:04;;;;;;;14.63;6.57;;;;;;;;;;6171471;28;20065;-81
2022/11/26 16:36:28;;;;;;;19.33;8.18;;;;;;;;;;6159777;28;20062;-78
2022/11/26 16:39:31;;;;;;;14.45;6.40;;;;;;;;;;6168888;28;20088;-80
2022/11/26 16:42:39;;;;;;;17.98;6.28;;;;;;;;;;6159946;28;20081;-79
2022/11/26 16:45:41;;;;;;;47.33;16.45;;;;;;;;;;6159668;28;20041;-82
2022/11/26 16:48:44;;;;;;;46.47;17.45;;;;;;;;;;6172264;28;20156;-79
2022/11/26 16:51:46;;;;;;;17.02;8.13;;;;;;;;;;6190730;28;20046;-81
2022/11/26 16:54:50;;;;;;;15.80;8.18;;;;;;;;;;6196826;28;20041;-78
2022/11/26 16:57:55;;;;;;;14.57;7.50;;;;;;;;;;6191953;28;20065;-78
2022/11/26 17:00:57;;;;;;;19.13;8.65;;;;;;;;;;6193559;28;20041;-77
2022/11/26 17:03:59;;;;;;;14.13;6.57;;;;;;;;;;6194942;28;20057;-80
2022/11/26 17:07:01;;;;;;;14.30;7.28;;;;;;;;;;6190746;28;20056;-81
2022/11/26 17:10:04;;;;;;;15.13;6.63;;;;;;;;;;6193765;28;20076;-78
2022/11/26 17:13:07;;;;;;;16.90;7.40;;;;;;;;;;6186946;28;20222;-81
2022/11/26 17:16:14;;;;;;;;;;;;;;;;;;6192013;28;20509;-83
2022/11/26 17:19:16;;;;;;;9.88;5.35;;;;;;;;;;6195237;28;19983;-80
2022/11/26 17:22:19;;;;;;;11.02;5.00;;;;;;;;;;6184390;28;20034;-80
2022/11/26 17:25:21;;;;;;;11.55;4.82;;;;;;;;;;6202862;28;20057;-81
2022/11/26 17:28:23;;;;;;;8.25;4.70;;;;;;;;;;6194807;28;20141;-78
2022/11/26 17:31:26;;;;;;;11.25;4.38;;;;;;;;;;6183248;28;20053;-80
2022/11/26 17:34:29;;;;;;;7.00;3.53;;;;;;;;;;6194358;28;20099;-80
2022/11/26 17:37:31;;;;;;;13.00;6.22;;;;;;;;;;6183621;28;20038;-80
2022/11/26 17:40:35;;;;;;;13.88;6.10;;;;;;;;;;6193224;28;20568;-80
2022/11/26 17:43:37;;;;;;;15.07;7.00;;;;;;;;;;6190204;28;20057;-80
2022/11/26 17:46:40;;;;;;;16.00;8.75;;;;;;;;;;6186597;28;20058;-79
2022/11/26 17:50:04;;;;;;;15.48;6.70;;;;;;;;;;6188790;28;20053;-80
2022/11/26 17:53:05;;;;;;;11.23;5.35;;;;;;;;;;6205082;28;20123;-77
2022/11/26 17:56:16;;;;;;;11.30;5.25;;;;;;;;;;6183526;28;20069;-78
2022/11/26 17:59:18;;;;;;;17.58;5.47;;;;;;;;;;6185297;28;20529;-80
2022/11/26 18:02:24;;;;;;;10.65;3.58;;;;;;;;;;6189075;28;20107;-79
2022/11/26 18:05:28;;;;;;;7.57;3.63;;;;;;;;;;6188094;28;20133;-79
2022/11/26 18:08:30;;;;;;;6.88;2.97;;;;;;;;;;6185591;28;20046;-81
2022/11/26 18:11:53;;;;;;;9.60;4.07;;;;;;;;;;6187244;28;20567;-79
2022/11/26 18:14:57;;;;;;;7.80;3.93;;;;;;;;;;6201491;28;20398;-82
2022/11/26 18:17:59;;;;;;;;;;;;;;;;;;6170024;28;20042;-82
2022/11/26 18:21:01;;;;;;;15.77;4.85;;;;;;;;;;6183631;28;19999;-78
2022/11/26 18:24:07;;;;;;;6.00;2.47;;;;;;;;;;6186466;28;20054;-79